Time;durP1;ratioP1;P1;durP2;ratioP2;P2;SDS_P1;SDS_P2;PMS_P1;PMS_P2;Temp;Humidity;BMP_temperature;BMP_pressure;BME280_temperature;BME280_humidity;BME280_pressure;Samples;Min_cycle;Max_cycle;Signal;HPM_P1;HPM_P2
2021/10/09 00:00:08;;;;;;;33.45;28.88;;;15.10;99.90;;;15.35;75.99;102866.16;4844212;29;20485;-71
2021/10/09 00:02:37;;;;;;;33.90;30.10;;;15.10;99.90;;;15.25;76.15;102843.88;4845418;29;20049;-71
2021/10/09 00:05:08;;;;;;;38.65;32.00;;;15.10;99.90;;;15.39;75.88;102863.56;4845361;29;20400;-71
2021/10/09 00:07:37;;;;;;;33.90;30.30;;;15.20;99.90;;;15.35;75.95;102863.50;4844084;29;20061;-71
2021/10/09 00:10:08;;;;;;;36.92;30.40;;;15.10;99.90;;;15.23;76.03;102853.63;4845145;29;20045;-71
2021/10/09 00:12:36;;;;;;;34.47;30.02;;;15.10;99.90;;;15.28;76.37;102864.34;4845054;29;20504;-71
2021/10/09 00:15:07;;;;;;;35.15;29.92;;;15.10;99.90;;;15.31;76.34;102859.06;4843954;29;20125;-71
2021/10/09 00:17:37;;;;;;;36.80;30.50;;;15.10;99.90;;;15.31;76.26;102869.72;4844979;29;20046;-71
2021/10/09 00:20:09;;;;;;;34.50;29.63;;;15.10;99.90;;;15.31;76.36;102870.59;4843934;29;20054;-71
2021/10/09 00:22:37;;;;;;;36.40;30.63;;;15.10;99.90;;;15.30;76.38;102863.50;4845126;29;20056;-71
2021/10/09 00:25:07;;;;;;;35.58;30.92;;;15.10;99.90;;;15.10;76.16;102834.84;4844746;29;20041;-71
2021/10/09 00:27:37;;;;;;;34.08;30.33;;;15.10;99.90;;;15.05;76.58;102833.94;4844537;29;20412;-70
2021/10/09 00:30:07;;;;;;;37.60;32.13;;;15.00;99.90;;;15.26;76.55;102868.78;4843523;29;20050;-70
2021/10/09 00:32:35;;;;;;;37.58;30.67;;;15.10;99.90;;;15.05;76.28;102829.50;4845409;29;20049;-70
2021/10/09 00:35:04;;;;;;;34.60;30.10;;;15.00;99.90;;;15.28;76.28;102859.91;4844573;29;20073;-70
2021/10/09 00:37:34;;;;;;;34.67;30.73;;;15.00;99.90;;;15.21;76.42;102860.72;4843497;29;20493;-70
2021/10/09 00:40:05;;;;;;;35.92;30.58;;;15.00;99.90;;;15.13;76.29;102850.91;4844776;29;20106;-70
2021/10/09 00:42:33;;;;;;;38.15;32.58;;;15.00;99.90;;;15.07;76.40;102850.84;4844492;29;20084;-71
2021/10/09 00:45:02;;;;;;;38.00;32.65;;;14.90;99.90;;;15.15;76.52;102863.38;4844317;29;20476;-71
2021/10/09 00:47:30;;;;;;;34.45;30.50;;;14.90;99.90;;;15.14;76.61;102855.34;4844546;29;20062;-71
2021/10/09 00:49:59;;;;;;;37.20;32.47;;;14.90;99.90;;;15.13;76.80;102859.78;4844493;29;20049;-70
2021/10/09 00:52:28;;;;;;;35.53;31.42;;;14.90;99.90;;;15.14;76.56;102852.66;4843249;29;20061;-70
2021/10/09 00:54:58;;;;;;;36.80;32.00;;;14.90;99.90;;;15.13;76.67;102857.13;4844230;29;20204;-70
2021/10/09 00:57:30;;;;;;;37.85;33.08;;;14.90;99.90;;;15.05;76.63;102856.16;4843278;29;20066;-70
2021/10/09 01:00:00;;;;;;;35.90;32.00;;;14.80;99.90;;;15.04;77.03;102862.34;4844397;29;20057;-70
2021/10/09 01:02:29;;;;;;;36.00;31.60;;;14.80;99.90;;;14.72;76.89;102806.97;4843152;29;20411;-70
2021/10/09 01:04:59;;;;;;;36.88;31.58;;;14.80;99.90;;;15.03;76.93;102860.59;4844310;29;20049;-70
2021/10/09 01:07:27;;;;;;;40.17;32.17;;;14.80;99.90;;;15.01;77.00;102858.78;4842994;29;20090;-70
2021/10/09 01:09:58;;;;;;;35.83;31.95;;;14.80;99.90;;;14.98;76.93;102854.31;4842898;29;20053;-70
2021/10/09 01:12:26;;;;;;;39.38;33.05;;;14.70;99.90;;;14.94;77.25;102847.16;4844414;29;20144;-70
2021/10/09 01:14:55;;;;;;;40.25;34.20;;;14.70;99.90;;;14.92;77.04;102872.94;4844265;29;20042;-70
2021/10/09 01:17:25;;;;;;;37.78;32.90;;;14.70;99.90;;;14.90;77.41;102848.03;4844099;29;20057;-70
2021/10/09 01:19:53;;;;;;;39.00;34.40;;;14.70;99.90;;;14.93;77.29;102850.72;4843996;29;20461;-71
2021/10/09 01:22:23;;;;;;;41.05;33.08;;;14.70;99.90;;;14.90;77.74;102850.69;4842870;29;20085;-71
2021/10/09 01:24:51;;;;;;;38.72;33.63;;;14.70;99.90;;;14.89;77.48;102848.91;4842625;29;20393;-70
2021/10/09 01:27:20;;;;;;;40.97;34.63;;;14.70;99.90;;;14.94;77.36;102847.16;4843859;29;20484;-71
2021/10/09 01:29:48;;;;;;;44.63;34.58;;;14.70;99.90;;;14.91;77.65;102841.81;4842559;29;20058;-70
2021/10/09 01:32:20;;;;;;;38.70;33.97;;;14.70;99.90;;;14.88;77.38;102839.13;4842535;29;20053;-71
2021/10/09 01:34:49;;;;;;;41.53;34.15;;;14.60;99.90;;;14.90;77.36;102841.81;4842510;29;20054;-70
2021/10/09 01:37:19;;;;;;;42.60;34.33;;;14.70;99.90;;;14.89;77.83;102845.31;4842481;29;20045;-70
2021/10/09 01:39:50;;;;;;;43.35;35.47;;;14.60;99.90;;;14.58;77.29;102782.88;4842433;29;20084;-71
2021/10/09 01:42:23;;;;;;;39.97;34.60;;;14.60;99.90;;;14.91;77.36;102839.16;4843374;29;20050;-71
2021/10/09 01:44:52;;;;;;;42.83;35.38;;;14.60;99.90;;;14.85;77.32;102839.09;4842253;29;20053;-70
2021/10/09 01:47:21;;;;;;;41.78;34.72;;;14.60;99.90;;;14.80;77.64;102837.25;4842142;29;20072;-71
2021/10/09 01:49:50;;;;;;;42.92;35.38;;;14.60;99.90;;;14.84;77.76;102839.97;4842221;29;20381;-70
2021/10/09 01:52:19;;;;;;;55.17;34.22;;;14.60;99.90;;;14.65;77.81;102803.38;4842126;29;20054;-70
2021/10/09 01:54:49;;;;;;;40.83;34.70;;;14.50;99.90;;;14.90;77.82;102839.13;4842182;29;20411;-70
2021/10/09 01:57:20;;;;;;;41.90;34.65;;;14.60;99.90;;;14.84;77.83;102831.97;4843341;29;20050;-70
2021/10/09 01:59:54;;;;;;;41.13;35.33;;;14.60;99.90;;;14.88;77.79;102831.13;4842112;29;20119;-70
2021/10/09 02:02:26;;;;;;;43.53;35.70;;;14.60;99.90;;;14.91;77.61;102836.47;4842042;29;20057;-70
2021/10/09 02:04:55;;;;;;;43.13;35.80;;;14.60;99.90;;;14.88;77.48;102832.91;4842907;29;20420;-70
2021/10/09 02:07:25;;;;;;;43.63;36.30;;;14.60;99.90;;;14.81;77.68;102815.94;4841996;29;20140;-70
2021/10/09 02:09:58;;;;;;;43.92;35.70;;;14.60;99.90;;;14.77;77.63;102821.25;4841965;29;20054;-70
2021/10/09 02:12:29;;;;;;;44.37;35.43;;;14.50;99.90;;;14.76;77.75;102823.03;4841867;29;20058;-70
2021/10/09 02:15:01;;;;;;;42.58;35.63;;;14.50;99.90;;;14.79;77.78;102828.34;4842037;29;20434;-72
2021/10/09 02:17:51;;;;;;;44.45;36.60;;;14.50;99.90;;;14.76;77.54;102817.69;4841866;29;20054;-71
2021/10/09 02:26:08;;;;;;;41.50;34.83;;;14.50;99.90;;;14.69;78.25;102815.81;4753523;30;20086;-70
2021/10/09 02:28:37;;;;;;;43.63;35.60;;;14.40;99.90;;;14.55;78.15;102793.50;4811630;29;20064;-71
2021/10/09 02:31:05;;;;;;;41.85;35.20;;;14.50;99.90;;;14.70;78.11;102814.97;4841587;29;20046;-70
2021/10/09 02:33:34;;;;;;;42.83;36.40;;;14.40;99.90;;;14.66;78.11;102815.81;4841590;29;20114;-70
2021/10/09 02:36:03;;;;;;;41.13;35.92;;;14.40;99.90;;;14.65;78.21;102814.03;4842788;29;20417;-70
2021/10/09 02:38:31;;;;;;;44.33;36.40;;;14.30;99.90;;;14.66;78.24;102806.91;4841158;29;20077;-70
2021/10/09 02:41:00;;;;;;;42.65;36.35;;;14.40;99.90;;;14.64;78.51;102811.31;4841488;29;20049;-70
2021/10/09 02:43:30;;;;;;;45.40;36.83;;;14.40;99.90;;;14.63;78.35;102807.81;4841077;29;20062;-71
2021/10/09 02:46:01;;;;;;;48.25;37.53;;;14.40;99.90;;;14.62;78.31;102805.09;4841224;29;20049;-70
2021/10/09 02:48:37;;;;;;;42.72;35.40;;;14.30;99.90;;;14.63;78.08;102807.81;4841524;29;20082;-70
2021/10/09 02:51:05;;;;;;;47.53;37.13;;;14.40;99.90;;;14.65;78.12;102800.72;4842628;29;20483;-70
2021/10/09 02:53:34;;;;;;;47.15;35.83;;;14.40;99.90;;;14.61;78.38;102813.97;4841399;29;20489;-70
2021/10/09 02:56:03;;;;;;;46.50;36.28;;;14.30;99.90;;;14.61;78.33;102803.31;4841374;29;20069;-71
2021/10/09 02:58:36;;;;;;;45.47;35.33;;;14.30;99.90;;;14.38;78.20;102763.16;4841130;29;20114;-70
2021/10/09 03:01:05;;;;;;;46.42;37.65;;;14.40;99.90;;;14.66;78.38;102802.47;4842600;29;20061;-70
2021/10/09 03:03:33;;;;;;;47.63;36.33;;;14.40;99.90;;;14.58;78.06;102801.50;4842563;29;20077;-70
2021/10/09 03:06:02;;;;;;;47.22;36.47;;;14.40;99.90;;;14.61;78.23;102809.56;4842540;29;20042;-70
2021/10/09 03:08:32;;;;;;;44.67;37.58;;;14.30;99.90;;;14.58;78.43;102809.50;4841286;29;20512;-70
2021/10/09 03:11:02;;;;;;;50.60;36.60;;;14.30;99.90;;;14.45;78.38;102795.19;4841226;29;20420;-70
2021/10/09 03:13:31;;;;;;;46.65;36.83;;;14.30;99.90;;;14.32;78.62;102768.41;4841071;29;20445;-70
2021/10/09 03:16:01;;;;;;;44.45;36.42;;;14.30;99.90;;;14.55;78.45;102816.56;4842487;29;20050;-70
2021/10/09 03:18:29;;;;;;;45.17;36.47;;;14.30;99.90;;;14.56;78.60;102810.34;4841189;29;20061;-70
2021/10/09 03:20:58;;;;;;;43.30;36.15;;;14.30;99.90;;;14.56;78.32;102808.59;4841166;29;20359;-70
2021/10/09 03:23:26;;;;;;;45.92;37.53;;;14.30;99.90;;;14.52;78.59;102801.44;4841166;29;20085;-70
2021/10/09 03:25:56;;;;;;;46.93;37.17;;;14.30;99.90;;;14.51;78.36;102810.31;4841147;29;20050;-70
2021/10/09 03:28:25;;;;;;;43.88;35.75;;;14.30;99.90;;;14.46;78.50;102798.72;4841057;29;20338;-70
2021/10/09 03:30:54;;;;;;;45.10;36.78;;;14.20;99.90;;;14.50;78.54;102800.53;4840804;29;20057;-70
2021/10/09 03:33:24;;;;;;;48.95;37.05;;;14.20;99.90;;;14.51;78.52;102807.66;4841012;29;20129;-70
2021/10/09 03:35:52;;;;;;;50.65;38.30;;;14.20;99.90;;;14.45;78.54;102812.91;4842065;29;20045;-70
2021/10/09 03:38:21;;;;;;;49.72;37.03;;;14.20;99.90;;;14.41;78.60;102811.09;4841013;29;20046;-70
2021/10/09 03:40:55;;;;;;;50.35;37.15;;;14.20;99.90;;;14.37;79.03;102801.28;4840730;29;20057;-70
2021/10/09 03:43:25;;;;;;;43.97;37.25;;;14.20;99.90;;;14.37;78.83;102803.94;4841889;29;20516;-70
2021/10/09 03:46:02;;;;;;;49.53;36.50;;;14.10;99.90;;;14.34;78.83;102787.97;4841039;29;20050;-70
2021/10/09 03:54:12;;;;;;;48.88;38.13;;;14.10;99.90;;;14.19;79.18;102780.63;4845571;29;20056;-70
2021/10/09 03:56:42;;;;;;;48.63;38.85;;;14.10;99.90;;;14.30;79.06;102799.44;4844244;29;20046;-70
2021/10/09 03:59:10;;;;;;;50.17;38.22;;;14.10;99.90;;;14.30;79.06;102802.97;4844189;29;20501;-70
2021/10/09 04:01:39;;;;;;;46.50;37.75;;;14.10;99.90;;;14.19;79.05;102803.69;4844183;29;20116;-70
2021/10/09 04:04:10;;;;;;;49.08;38.13;;;14.00;99.90;;;14.14;79.60;102805.41;4844142;29;20137;-70
2021/10/09 04:06:39;;;;;;;49.72;39.47;;;13.90;99.90;;;14.09;79.27;102809.81;4844133;29;20572;-70
2021/10/09 04:09:07;;;;;;;53.28;41.85;;;13.90;99.90;;;13.92;79.51;102806.91;4844045;29;20396;-70
2021/10/09 04:11:36;;;;;;;51.20;39.42;;;13.80;99.90;;;13.98;79.77;102804.34;4843895;29;20054;-70
2021/10/09 04:14:04;;;;;;;51.17;40.88;;;13.70;99.90;;;13.88;79.61;102793.56;4843691;29;20050;-71
2021/10/09 04:16:34;;;;;;;49.67;38.23;;;13.70;99.90;;;13.88;79.71;102797.09;4843986;29;20053;-70
2021/10/09 04:19:03;;;;;;;50.17;40.25;;;13.70;99.90;;;13.87;80.16;102797.09;4843814;29;20052;-70
2021/10/09 04:21:34;;;;;;;51.80;40.23;;;13.70;99.90;;;13.84;80.25;102794.41;4843802;29;20492;-70
2021/10/09 04:24:03;;;;;;;56.72;41.58;;;13.60;99.90;;;13.82;80.38;102802.34;4843860;29;20412;-71
2021/10/09 04:26:33;;;;;;;53.30;41.30;;;13.70;99.90;;;13.72;80.76;102800.47;4843693;29;20102;-70
2021/10/09 04:29:04;;;;;;;52.10;40.70;;;13.50;99.90;;;13.76;80.62;102794.31;4843439;29;20054;-70
2021/10/09 04:31:32;;;;;;;49.58;39.50;;;13.50;99.90;;;13.81;80.80;102794.34;4843825;29;20548;-70
2021/10/09 04:34:01;;;;;;;50.78;41.17;;;13.60;99.90;;;13.75;80.38;102795.16;4843548;29;20046;-70
2021/10/09 04:36:30;;;;;;;56.13;41.78;;;13.60;99.90;;;13.59;80.67;102799.38;4843807;29;20046;-70
2021/10/09 04:39:00;;;;;;;54.50;42.35;;;13.50;99.90;;;13.55;80.89;102793.97;4843509;29;20118;-70
2021/10/09 04:41:31;;;;;;;54.85;41.15;;;13.40;99.90;;;13.49;81.13;102791.25;4843450;29;20069;-70
2021/10/09 04:44:00;;;;;;;51.92;39.80;;;13.40;99.90;;;13.26;81.62;102790.91;4843220;29;20054;-70
2021/10/09 04:46:30;;;;;;;55.75;42.50;;;13.10;99.90;;;12.97;82.09;102754.09;4843062;29;20129;-70
2021/10/09 04:49:00;;;;;;;54.35;41.58;;;13.00;99.90;;;13.12;82.47;102779.19;4843411;29;20050;-70
2021/10/09 04:51:29;;;;;;;56.83;42.83;;;12.90;99.90;;;13.23;82.85;102788.22;4843471;29;20046;-70
2021/10/09 04:54:01;;;;;;;55.92;41.25;;;13.00;99.90;;;13.31;82.40;102785.66;4844598;29;20115;-70
2021/10/09 04:56:29;;;;;;;55.75;42.42;;;13.10;99.90;;;13.36;82.40;102790.19;4842964;29;20057;-70
2021/10/09 04:58:59;;;;;;;56.65;42.72;;;13.10;99.90;;;13.27;82.12;102770.53;4843205;29;20046;-70
2021/10/09 05:01:27;;;;;;;52.15;41.60;;;13.20;99.90;;;13.44;82.23;102788.53;4842783;29;20061;-70
2021/10/09 05:03:57;;;;;;;55.97;42.43;;;13.20;99.90;;;13.50;82.10;102793.03;4843204;29;20053;-70
2021/10/09 05:06:26;;;;;;;56.42;41.53;;;13.30;99.90;;;13.48;81.60;102776.16;4843059;29;20050;-70
2021/10/09 05:08:55;;;;;;;53.05;40.10;;;13.30;99.90;;;13.54;81.56;102785.13;4842979;29;20061;-70
2021/10/09 05:11:24;;;;;;;53.33;40.78;;;13.30;99.90;;;13.57;81.37;102781.59;4842996;29;20085;-70
2021/10/09 05:13:53;;;;;;;54.38;41.45;;;13.40;99.90;;;13.51;81.18;102774.44;4842726;29;20062;-70
2021/10/09 05:16:25;;;;;;;53.25;41.13;;;13.30;99.90;;;13.41;80.92;102769.84;4842657;29;20081;-70
2021/10/09 05:18:53;;;;;;;54.63;40.47;;;13.30;99.90;;;13.52;80.96;102784.22;4842829;29;20046;-70
2021/10/09 05:21:22;;;;;;;52.22;41.55;;;13.30;99.90;;;13.55;81.26;102784.25;4842535;29;20054;-70
2021/10/09 05:23:51;;;;;;;49.00;38.75;;;13.30;99.90;;;13.42;81.13;102766.34;4843989;29;20125;-72
2021/10/09 05:26:21;;;;;;;50.90;39.25;;;13.30;99.90;;;13.45;81.08;102774.34;4842804;29;20042;-70
2021/10/09 05:28:53;;;;;;;51.35;39.55;;;13.40;99.90;;;13.61;80.80;102795.88;4842634;29;20572;-70
2021/10/09 05:31:25;;;;;;;50.95;38.90;;;13.30;99.90;;;13.64;80.71;102791.47;4842658;29;20060;-70
2021/10/09 05:33:57;;;;;;;50.60;39.95;;;13.40;99.90;;;13.55;80.48;102781.59;4843539;29;20042;-70
2021/10/09 05:36:27;;;;;;;54.72;39.83;;;13.40;99.90;;;13.62;80.46;102792.31;4842586;29;20340;-70
2021/10/09 05:38:55;;;;;;;51.30;39.88;;;13.40;99.90;;;13.62;80.72;102798.53;4842493;29;20054;-70
2021/10/09 05:41:24;;;;;;;51.25;39.08;;;13.40;99.90;;;13.57;80.34;102785.16;4843631;29;20046;-71
2021/10/09 05:44:04;;;;;;;51.20;39.92;;;13.30;99.90;;;13.42;80.65;102771.66;4842323;29;20400;-70
2021/10/09 05:46:34;;;;;;;53.58;41.03;;;13.40;99.90;;;13.63;80.63;102805.63;4842208;29;20515;-70
2021/10/09 05:49:03;;;;;;;48.35;39.13;;;13.40;99.90;;;13.62;80.41;102808.28;4842349;29;20050;-70
2021/10/09 05:51:35;;;;;;;48.88;38.40;;;13.40;99.90;;;13.49;80.44;102792.13;4843336;29;20424;-70
2021/10/09 05:54:20;;;;;;;;;;;13.40;99.90;;;13.57;80.46;102793.13;4842711;29;20046;-70
2021/10/09 05:56:55;;;;;;;52.08;39.05;;;13.40;99.90;;;13.61;80.25;102803.84;4843671;29;19931;-71
2021/10/09 06:00:10;;;;;;;50.25;39.65;;;13.40;99.90;;;13.59;80.12;102799.38;4842189;29;20057;-70
2021/10/09 06:42:27;;;;;;;55.40;40.53;;;13.50;99.90;;;13.67;79.67;102827.84;4841592;29;20110;-70
2021/10/09 06:48:16;;;;;;;52.42;41.08;;;13.60;99.90;;;13.85;79.99;102838.75;4796508;29;20054;-71
2021/10/09 07:01:59;;;;;;;53.40;41.13;;;14.00;99.90;;;14.38;78.70;102848.34;4837980;29;20054;-70
2021/10/09 07:04:29;;;;;;;52.33;40.03;;;14.20;99.90;;;14.61;78.54;102861.94;4841407;29;20151;-71
2021/10/09 07:07:03;;;;;;;53.08;40.28;;;14.40;99.90;;;14.83;78.14;102859.50;4841314;29;20054;-71
2021/10/09 07:09:38;;;;;;;55.00;41.60;;;14.60;99.90;;;14.94;77.07;102855.16;4842294;29;20053;-71
2021/10/09 07:12:14;;;;;;;51.45;39.50;;;14.80;99.90;;;15.12;76.13;102866.00;4841270;29;20082;-71
2021/10/09 07:14:43;;;;;;;54.47;40.97;;;14.90;99.90;;;15.23;75.53;102866.97;4840731;29;20054;-71
2021/10/09 07:17:12;;;;;;;49.67;39.38;;;15.10;99.90;;;15.33;75.49;102868.84;4841000;29;20049;-72
2021/10/09 07:19:40;;;;;;;56.67;41.13;;;15.10;99.90;;;15.42;74.98;102867.16;4840618;29;20046;-71
2021/10/09 07:22:13;;;;;;;51.65;39.72;;;15.20;99.90;;;15.58;74.18;102869.06;4841044;29;20077;-72
2021/10/09 07:25:02;;;;;;;50.57;40.23;;;15.30;99.90;;;14.95;74.89;102870.28;4843636;29;20053;-71
2021/10/09 07:27:31;;;;;;;50.75;39.25;;;14.90;99.90;;;14.65;77.05;102869.97;4844747;29;20299;-71
2021/10/09 07:30:01;;;;;;;49.92;39.38;;;14.50;99.90;;;14.51;77.47;102871.59;4844706;29;20061;-71
2021/10/09 07:32:29;;;;;;;51.53;40.22;;;14.30;99.90;;;14.53;77.21;102868.94;4845654;29;20050;-71
2021/10/09 07:34:58;;;;;;;51.67;40.28;;;14.30;99.90;;;14.82;77.17;102876.38;4845547;29;20133;-72
2021/10/09 07:37:28;;;;;;;52.33;40.10;;;14.50;99.90;;;14.56;77.01;102880.50;4845663;29;20488;-71
2021/10/09 07:39:57;;;;;;;54.08;41.22;;;14.50;99.90;;;14.31;78.83;102875.75;4845619;29;20126;-71
2021/10/09 07:42:26;;;;;;;57.75;40.88;;;14.10;99.90;;;13.58;80.54;102873.81;4844334;29;20046;-72
2021/10/09 07:44:54;;;;;;;57.13;42.47;;;13.60;99.90;;;13.27;83.40;102874.19;4845598;29;20046;-72
2021/10/09 07:47:23;;;;;;;57.25;43.58;;;13.10;99.90;;;13.50;83.59;102876.38;4845415;29;20082;-71
2021/10/09 07:49:51;;;;;;;60.35;44.63;;;13.20;99.90;;;13.22;83.70;102858.16;4845235;29;20653;-71
2021/10/09 07:52:20;;;;;;;61.92;46.10;;;13.20;99.90;;;12.98;84.53;102876.31;4845760;29;20138;-72
2021/10/09 07:54:49;;;;;;;63.15;45.53;;;12.90;99.90;;;13.20;85.38;102875.84;4844940;29;20071;-72
2021/10/09 07:57:18;;;;;;;63.85;47.20;;;12.90;99.90;;;13.36;86.44;102864.59;4845544;29;20049;-71
2021/10/09 07:59:46;;;;;;;67.10;48.30;;;13.00;99.90;;;13.28;85.91;102882.19;4844918;29;20477;-72
2021/10/09 08:02:15;;;;;;;63.67;47.80;;;13.00;99.90;;;13.21;86.32;102869.69;4845545;29;20050;-71
2021/10/09 08:04:44;;;;;;;64.53;48.28;;;13.00;99.90;;;13.50;84.54;102809.00;4844045;29;20054;-71
2021/10/09 08:07:12;;;;;;;66.10;47.38;;;13.50;99.90;;;13.37;83.42;102802.63;4845024;29;20102;-72
2021/10/09 08:09:41;;;;;;;63.63;47.75;;;13.60;99.90;;;14.25;83.51;102873.88;4845197;29;20088;-71
2021/10/09 08:12:11;;;;;;;63.53;47.67;;;13.80;99.90;;;14.56;80.83;102858.28;4845500;29;20061;-72
2021/10/09 08:14:40;;;;;;;59.15;45.55;;;14.40;99.90;;;14.87;80.77;102892.38;4845214;29;20078;-71
2021/10/09 08:17:08;;;;;;;62.53;47.63;;;14.50;99.90;;;15.08;79.43;102893.50;4843811;29;20489;-71
2021/10/09 08:19:36;;;;;;;61.25;45.38;;;14.70;99.90;;;15.23;77.60;102880.31;4844639;29;20552;-71
2021/10/09 08:22:08;;;;;;;63.30;44.42;;;15.10;99.90;;;15.69;77.62;102872.69;4844679;29;20054;-71
2021/10/09 08:24:38;;;;;;;58.88;44.70;;;15.40;99.90;;;16.23;75.42;102892.59;4844895;29;20046;-71
2021/10/09 08:27:18;;;;;;;58.00;44.53;;;15.90;99.90;;;16.30;72.90;102893.50;4844746;29;20054;-72
2021/10/09 08:35:28;;;;;;;63.60;44.42;;;15.20;99.90;;;15.38;75.17;102855.56;4843830;29;20061;-72
2021/10/09 08:40:44;;;;;;;60.55;44.67;;;15.10;99.90;;;15.63;77.06;102899.34;4844289;29;20084;-72
2021/10/09 08:43:13;;;;;;;65.93;47.22;;;15.20;99.90;;;15.34;77.01;102897.31;4843384;29;20065;-72
2021/10/09 08:45:43;;;;;;;62.63;45.03;;;15.10;99.90;;;16.04;75.10;102892.50;4844574;29;20126;-72
2021/10/09 08:48:11;;;;;;;54.87;44.20;;;15.60;99.90;;;15.98;74.85;102897.78;4844136;29;20062;-72
2021/10/09 08:50:42;;;;;;;60.08;44.00;;;15.70;99.90;;;16.31;73.64;102894.41;4844558;29;20073;-71
2021/10/09 08:53:12;;;;;;;55.92;43.15;;;16.00;99.90;;;16.36;71.86;102853.47;4844304;29;20110;-72
2021/10/09 08:55:48;;;;;;;58.55;42.92;;;16.30;99.90;;;16.58;72.31;102906.13;4844055;29;20496;-72
2021/10/09 08:58:30;;;;;;;60.20;42.80;;;16.30;99.90;;;16.11;72.02;102905.88;4844319;29;20065;-72
2021/10/09 09:01:13;;;;;;;57.40;41.90;;;16.00;99.90;;;15.75;73.29;102902.09;4844460;29;20061;-72
2021/10/09 09:04:11;;;;;;;61.35;43.00;;;15.60;99.90;;;15.27;74.70;102897.25;4844057;29;20054;-72
2021/10/09 09:26:47;;;;;;;61.67;41.28;;;15.60;99.90;;;16.55;72.96;102900.75;4843558;29;20049;-71
2021/10/09 09:38:52;;;;;;;52.72;41.42;;;16.80;99.90;;;17.31;70.28;102901.81;4843625;29;20437;-71
2021/10/09 09:40:38;;;;;;;54.80;39.78;;;16.90;99.90;;;16.81;70.27;102893.72;4843156;29;20106;-71
2021/10/09 09:43:08;;;;;;;50.85;38.95;;;16.60;99.90;;;17.56;70.52;102894.69;4843222;29;20492;-71
2021/10/09 09:45:40;;;;;;;54.30;38.13;;;17.10;99.90;;;16.62;70.28;102891.91;4843202;29;20050;-71
2021/10/09 09:48:10;;;;;;;51.72;39.53;;;16.50;99.90;;;16.74;71.53;102891.03;4840834;29;20402;-71
2021/10/09 09:50:40;;;;;;;49.47;40.00;;;16.40;99.90;;;17.36;71.37;102889.34;4843195;29;20377;-71
2021/10/09 09:53:09;;;;;;;52.80;39.13;;;16.90;99.90;;;16.87;69.38;102888.41;4843101;29;20080;-71
2021/10/09 09:55:37;;;;;;;56.03;39.65;;;16.70;99.90;;;17.13;69.13;102883.97;4843060;29;20141;-71
2021/10/09 09:58:17;;;;;;;51.78;39.38;;;16.80;99.90;;;16.53;70.37;102882.97;4842967;29;20500;-71
2021/10/09 10:00:46;;;;;;;50.67;38.55;;;16.40;99.90;;;16.73;70.48;102887.47;4843101;29;20107;-71
2021/10/09 10:03:16;;;;;;;56.80;40.10;;;16.50;99.90;;;16.75;70.93;102891.03;4842979;29;20492;-71
2021/10/09 10:05:46;;;;;;;53.17;39.88;;;16.50;99.90;;;16.47;70.96;102885.56;4843258;29;20060;-71
2021/10/09 10:08:16;;;;;;;53.78;40.17;;;16.30;99.90;;;16.53;72.15;102891.84;4842793;29;20523;-71
2021/10/09 10:10:44;;;;;;;49.40;39.63;;;16.30;99.90;;;16.25;70.93;102876.56;4843085;29;20531;-70
2021/10/09 10:13:13;;;;;;;54.60;40.00;;;16.20;99.90;;;16.29;73.04;102865.03;4842831;29;20053;-71
2021/10/09 10:15:42;;;;;;;52.72;40.50;;;16.10;99.90;;;16.95;72.99;102894.66;4842917;29;20053;-71
2021/10/09 10:18:12;;;;;;;55.97;40.40;;;16.40;99.90;;;16.87;72.73;102888.41;4842635;29;20496;-71
2021/10/09 10:20:51;;;;;;;49.05;38.30;;;16.60;99.90;;;16.88;70.57;102890.16;4842967;29;20076;-71
2021/10/09 10:23:37;;;;;;;53.00;39.08;;;16.60;99.90;;;16.98;72.09;102877.72;4842837;29;20053;-71
2021/10/09 10:26:31;;;;;;;64.97;41.50;;;16.60;99.90;;;16.92;71.58;102888.38;4842740;29;20137;-71
2021/10/09 10:29:24;;;;;;;57.97;40.13;;;16.70;99.90;;;16.77;71.34;102880.34;4842758;29;20050;-71
2021/10/09 10:32:18;;;;;;;51.97;40.40;;;16.60;99.90;;;17.30;69.58;102885.78;4842594;29;20053;-71
2021/10/09 10:34:49;;;;;;;53.75;41.03;;;17.00;99.90;;;17.41;70.50;102892.91;4842415;29;20061;-70
2021/10/09 10:37:35;;;;;;;;;;;17.10;99.90;;;17.28;69.56;102890.22;4842928;29;20041;-71
2021/10/09 10:40:06;;;;;;;59.17;40.92;;;17.00;99.90;;;17.21;70.90;102899.16;4842498;29;19928;-71
2021/10/09 10:42:34;;;;;;;52.80;41.53;;;17.00;99.90;;;17.18;70.37;102883.97;4841536;29;20062;-71
2021/10/09 10:45:10;;;;;;;52.58;41.20;;;16.90;99.90;;;16.95;71.15;102841.19;4842388;29;20128;-71
2021/10/09 10:47:52;;;;;;;55.05;41.15;;;16.90;99.90;;;17.17;71.36;102890.22;4842346;29;20054;-71
2021/10/09 10:51:14;;;;;;;54.80;41.05;;;16.90;99.90;;;17.43;70.79;102879.53;4842732;29;20506;-71
2021/10/09 10:54:18;;;;;;;52.42;40.38;;;17.00;99.90;;;17.65;70.26;102884.88;4842183;29;20054;-71
2021/10/09 10:57:23;;;;;;;58.30;42.17;;;17.20;99.90;;;17.61;71.72;102867.06;4841048;29;20049;-71
2021/10/09 11:00:15;;;;;;;52.92;40.03;;;17.20;99.90;;;18.07;68.33;102888.38;4840862;29;20054;-71
2021/10/09 11:02:48;;;;;;;55.13;40.33;;;17.80;99.90;;;17.03;69.43;102875.94;4842245;29;20053;-71
2021/10/09 11:05:18;;;;;;;53.92;40.35;;;17.10;99.90;;;17.19;70.21;102888.44;4842193;29;20062;-71
2021/10/09 11:08:07;;;;;;;54.22;39.35;;;16.90;99.90;;;16.95;69.47;102883.06;4842078;29;20056;-71
2021/10/09 11:10:47;;;;;;;53.50;40.42;;;16.70;99.90;;;17.13;68.95;102883.97;4842150;29;20054;-71
2021/10/09 11:13:15;;;;;;;54.50;40.72;;;16.80;99.90;;;16.88;69.68;102884.81;4842315;29;20050;-71
2021/10/09 11:15:47;;;;;;;55.00;40.95;;;16.60;99.90;;;17.06;70.47;102892.88;4842310;29;20642;-71
2021/10/09 11:18:15;;;;;;;49.80;38.58;;;16.70;99.90;;;17.37;69.14;102877.75;4842071;29;20042;-70
2021/10/09 11:20:46;;;;;;;57.92;40.40;;;16.90;99.90;;;17.77;67.54;102835.78;4842077;29;20552;-71
2021/10/09 11:23:14;;;;;;;49.42;38.70;;;17.60;99.90;;;17.96;67.43;102881.25;4842196;29;20046;-70
2021/10/09 11:25:48;;;;;;;51.85;40.45;;;17.70;99.90;;;17.40;69.54;102879.53;4842347;29;20114;-71
2021/10/09 11:28:23;;;;;;;54.83;41.55;;;17.20;99.90;;;17.70;69.00;102879.53;4842047;29;20106;-71
2021/10/09 11:30:54;;;;;;;51.75;39.75;;;17.40;99.90;;;17.43;69.55;102882.19;4841910;29;20182;-70
2021/10/09 11:33:24;;;;;;;50.38;40.60;;;17.20;99.90;;;16.53;69.82;102779.63;4841949;29;20053;-71
2021/10/09 11:35:52;;;;;;;51.72;39.28;;;16.80;99.90;;;17.41;69.32;102867.91;4842065;29;20075;-70
2021/10/09 11:38:23;;;;;;;53.83;40.05;;;17.10;99.90;;;17.24;68.26;102869.72;4841887;29;20102;-71
2021/10/09 11:40:56;;;;;;;53.10;40.78;;;17.00;99.90;;;17.39;69.56;102869.72;4841860;29;20493;-70
2021/10/09 11:43:43;;;;;;;53.42;41.10;;;17.10;99.90;;;17.62;68.87;102857.22;4841754;29;20053;-71
2021/10/09 11:46:31;;;;;;;60.05;39.75;;;17.30;99.90;;;17.37;68.56;102879.50;4841920;29;20098;-71
2021/10/09 11:55:19;;;;;;;55.05;39.67;;;17.40;99.90;;;17.28;68.01;102871.50;4819476;29;20061;-71
2021/10/09 11:57:50;;;;;;;49.70;39.55;;;17.10;99.90;;;17.28;67.80;102872.41;4841895;29;20099;-71
2021/10/09 12:00:41;;;;;;;56.33;41.80;;;16.90;99.90;;;17.29;69.18;102867.91;4842092;29;20053;-71
2021/10/09 12:03:35;;;;;;;56.53;42.38;;;17.00;99.90;;;17.37;69.55;102852.75;4841824;29;20042;-71
2021/10/09 12:06:10;;;;;;;55.10;42.60;;;17.10;99.90;;;17.74;68.56;102866.16;4841510;29;20053;-71
2021/10/09 12:08:51;;;;;;;59.60;42.92;;;17.40;99.90;;;18.03;69.46;102863.38;4842303;29;20066;-71